بغداد, العراق

01:40 PM AST on لبراêر 13, 2016 (GMT +0300)
Baghdad International Air | | Change Station
CLOSE
Current Station
Airport
Location: Baghdad International Air,
Elevation: 115 ft
Nearby Weather Stations

Elev 115 ft 33.26 °N, 44.23 °E | Updated 10 minutes ago

Clear
صافية
68 °F
Feels Like 68 °F
N
13
ريح متغير ريح from NW

هذا اليوم
High -- | Low -- °F
--% Chance of Precip.
Yesterday
High -- | Low -- °F
Precip. -- في
الضغط 30.15 في
وضوح الرؤية -9999.0 أميال
سحابات
نقطة الندى 39 °F
الرطوبة 35%
Rainfall 0.00 في
عمق الثلج Not available.
6:49 AM 5:45 PM
الهلال الأول, 29% visible
METAR ORBI 131030Z 32011KT 290V350 CAVOK 20/04 Q1021
الضغط 30.15 في
وضوح الرؤية -9999.0 أميال
سحابات
نقطة الندى 39 °F
الرطوبة 35%
Rainfall 0.00 في
عمق الثلج Not available.
6:49 AM 5:45 PM
الهلال الأول, 29% visible
METAR ORBI 131030Z 32011KT 290V350 CAVOK 20/04 Q1021

10-Day Weather Forecast

No radar image for this location.
×

Almanac

علم الفلك

Feb. 13, 2016 Rise Set
Actual Time
Civil Twilight
Nautical Twilight
Astronomical Twilight
قمر
Length Of Visible Light
طول الیوم
Tomorrow will be .
, % of the Moon is Illuminated

Today's Extremes

Country Highs Country Lows

Community

WunderPhotos

Upload Photos

1,892,537 photos uploaded!

WunderBlog® & News

Nearby

جودة الهواء

  جودة الهواء AQ Index Pollutant
Not available.

عمق الثلج

Station Depth Elevation

Earthquake Activity

City Distance Mag. Time & Date
Minimum magnitude displayed is 2.5.

Coastal Water Temperatures

مكان درجات الحرارة

Stations

Nearby Weather Stations

Station Location الحرارة رياح باردة نقطة الندى الرطوبة ريح Precip. Elev تحديث Type